Time;durP1;ratioP1;P1;durP2;ratioP2;P2;SDS_P1;SDS_P2;PMS_P1;PMS_P2;Temp;Humidity;BMP_temperature;BMP_pressure;BME280_temperature;BME280_humidity;BME280_pressure;Samples;Min_cycle;Max_cycle;Signal;HPM_P1;HPM_P2
2023/12/07 00:01:52;;;;;;;28.70;19.60;;;;;;;-2.85;100.00;96183.22;5023110;28;20083;-62
2023/12/07 00:04:18;;;;;;;24.88;16.63;;;;;;;-2.84;100.00;96184.91;5028065;28;20056;-62
2023/12/07 00:06:43;;;;;;;21.95;16.13;;;;;;;-2.90;100.00;96194.53;5029321;28;20025;-61
2023/12/07 00:09:08;;;;;;;23.13;16.38;;;;;;;-2.86;100.00;96186.69;5024639;28;20116;-61
2023/12/07 00:11:34;;;;;;;20.60;15.65;;;;;;;-2.89;100.00;96191.03;5029486;28;20036;-61
2023/12/07 00:13:59;;;;;;;22.65;15.73;;;;;;;-2.93;100.00;96196.34;5014745;28;20037;-61
2023/12/07 00:16:24;;;;;;;19.33;13.85;;;;;;;-2.95;100.00;96192.97;5028235;28;20022;-62
2023/12/07 00:18:50;;;;;;;14.38;10.73;;;;;;;-2.96;100.00;96191.28;5023378;28;20032;-62
2023/12/07 00:21:15;;;;;;;14.25;10.25;;;;;;;-2.96;100.00;96196.44;5028317;28;20111;-61
2023/12/07 00:23:41;;;;;;;14.55;9.23;;;;;;;-2.94;100.00;96195.50;5021721;28;20040;-62
2023/12/07 00:26:06;;;;;;;17.13;11.88;;;;;;;-2.96;100.00;96184.41;5023102;28;20560;-62
2023/12/07 00:28:31;;;;;;;22.20;13.05;;;;;;;-2.99;100.00;96184.47;5023274;28;20029;-61
2023/12/07 00:30:57;;;;;;;24.98;15.30;;;;;;;-2.98;100.00;96182.75;5024981;28;20388;-62
2023/12/07 00:33:22;;;;;;;21.77;13.80;;;;;;;-3.01;100.00;96178.53;5020777;28;20113;-61
2023/12/07 00:35:48;;;;;;;19.25;12.70;;;;;;;-3.08;100.00;96179.63;5026688;28;20104;-62
2023/12/07 00:38:13;;;;;;;17.15;11.35;;;;;;;-3.10;100.00;96176.25;5022386;28;20025;-61
2023/12/07 00:40:39;;;;;;;14.15;11.43;;;;;;;-3.12;100.00;96178.84;5021753;28;20124;-62
2023/12/07 00:43:08;;;;;;;14.27;9.98;;;;;;;-3.12;100.00;96171.13;5021188;28;20037;-62
2023/12/07 00:45:33;;;;;;;14.23;10.50;;;;;;;-3.12;100.00;96180.59;5022972;28;20372;-61
2023/12/07 00:47:59;;;;;;;16.45;9.70;;;;;;;-3.11;100.00;96179.72;5026556;28;20081;-62
2023/12/07 00:50:24;;;;;;;20.50;11.63;;;;;;;-3.10;100.00;96168.53;5023678;28;20037;-61
2023/12/07 00:52:50;;;;;;;12.70;9.57;;;;;;;-3.15;100.00;96171.22;5026744;28;20518;-61
2023/12/07 00:55:15;;;;;;;11.88;8.65;;;;;;;-3.24;100.00;96167.19;5028292;28;20033;-62
2023/12/07 00:57:41;;;;;;;10.77;8.52;;;;;;;-3.24;100.00;96169.75;5021958;28;20494;-62
2023/12/07 01:00:07;;;;;;;11.95;8.05;;;;;;;-3.23;100.00;96170.63;5019562;28;20024;-61
2023/12/07 01:02:33;;;;;;;18.02;10.48;;;;;;;-3.22;100.00;96169.72;5031599;28;20053;-62
2023/12/07 01:04:58;;;;;;;16.52;11.10;;;;;;;-3.23;100.00;96174.03;5024118;28;20403;-62
2023/12/07 01:07:24;;;;;;;18.15;12.57;;;;;;;-3.21;100.00;96179.13;5023810;28;20527;-62
2023/12/07 01:09:49;;;;;;;13.43;11.05;;;;;;;-3.24;100.00;96182.63;5023164;28;20037;-61
2023/12/07 01:12:15;;;;;;;17.65;10.55;;;;;;;-3.26;100.00;96181.03;5022359;28;20034;-62
2023/12/07 01:14:41;;;;;;;14.73;11.38;;;;;;;-3.35;100.00;96184.72;5021767;28;20033;-62
2023/12/07 01:17:06;;;;;;;20.83;11.27;;;;;;;-3.35;100.00;96189.84;5022916;28;20044;-62
2023/12/07 01:19:31;;;;;;;14.07;10.75;;;;;;;-3.33;100.00;96193.22;5022313;28;20116;-61
2023/12/07 01:21:57;;;;;;;14.95;9.82;;;;;;;-3.37;100.00;96197.59;5020561;28;20556;-61
2023/12/07 01:24:22;;;;;;;15.38;10.00;;;;;;;-3.38;100.00;96188.19;5023887;28;20041;-62
2023/12/07 01:26:47;;;;;;;14.65;9.43;;;;;;;-3.37;100.00;96197.59;5026227;28;20022;-62
2023/12/07 01:29:13;;;;;;;9.98;7.78;;;;;;;-3.39;100.00;96194.25;5022460;28;20029;-61
2023/12/07 01:31:40;;;;;;;6.35;5.72;;;;;;;-3.40;100.00;96208.00;5026149;28;20041;-61
2023/12/07 01:34:05;;;;;;;6.47;5.50;;;;;;;-3.40;100.00;96209.75;5020081;28;20079;-62
2023/12/07 01:36:31;;;;;;;6.38;5.05;;;;;;;-3.35;100.00;96208.72;5023127;28;20018;-62
2023/12/07 01:38:56;;;;;;;11.60;8.27;;;;;;;-3.36;100.00;96222.47;5022862;28;20037;-61
2023/12/07 01:41:21;;;;;;;10.30;8.40;;;;;;;-3.36;100.00;96208.78;5023712;28;20055;-62
2023/12/07 01:43:47;;;;;;;9.25;8.15;;;;;;;-3.39;100.00;96219.16;5025121;28;20026;-61
2023/12/07 01:46:13;;;;;;;9.65;7.47;;;;;;;-3.46;100.00;96224.47;5023044;28;20029;-61
2023/12/07 01:48:39;;;;;;;9.43;6.53;;;;;;;-3.47;100.00;96220.19;5013121;28;20043;-61
2023/12/07 01:51:06;;;;;;;9.35;6.57;;;;;;;-3.46;100.00;96219.31;5019843;28;20421;-62
2023/12/07 01:53:31;;;;;;;6.38;5.25;;;;;;;-3.42;100.00;96214.09;5027053;28;20045;-62
2023/12/07 01:55:57;;;;;;;6.88;6.18;;;;;;;-3.43;100.00;96204.66;5026266;28;20021;-62
2023/12/07 01:58:23;;;;;;;8.32;6.47;;;;;;;-3.46;100.00;96208.19;5022832;28;20032;-61
2023/12/07 02:00:49;;;;;;;9.98;6.70;;;;;;;-3.44;100.00;96208.97;5027665;28;20124;-62
2023/12/07 02:03:16;;;;;;;10.98;5.97;;;;;;;-3.43;100.00;96213.25;5023451;28;20113;-62
2023/12/07 02:05:45;;;;;;;8.10;6.22;;;;;;;-3.43;100.00;96220.97;5015714;28;20562;-62
2023/12/07 02:08:11;;;;;;;9.05;6.60;;;;;;;-3.43;100.00;96220.13;5022203;28;20025;-61
2023/12/07 02:10:37;;;;;;;8.43;6.50;;;;;;;-3.43;100.00;96218.41;5024581;28;20120;-61
2023/12/07 02:13:03;;;;;;;10.73;6.28;;;;;;;-3.48;100.00;96225.41;5018216;28;20057;-61
2023/12/07 02:15:29;;;;;;;7.55;6.38;;;;;;;-3.51;100.00;96220.34;5020726;28;20026;-62
2023/12/07 02:18:18;;;;;;;9.05;6.47;;;;;;;-3.52;100.00;96229.78;5022935;28;20084;-62
2023/12/07 02:20:59;;;;;;;7.63;6.20;;;;;;;-3.51;100.00;96234.06;5025318;28;20025;-62
2023/12/07 02:23:27;;;;;;;9.15;6.65;;;;;;;-3.57;100.00;96235.94;5021764;28;20033;-61
2023/12/07 02:25:54;;;;;;;10.80;7.43;;;;;;;-3.63;100.00;96229.25;5021245;28;20029;-62
2023/12/07 02:28:20;;;;;;;11.98;6.18;;;;;;;-3.65;100.00;96231.00;5028015;28;20025;-61
2023/12/07 02:30:46;;;;;;;9.90;7.25;;;;;;;-3.64;100.00;96236.13;5022703;28;20030;-61
2023/12/07 02:33:12;;;;;;;8.07;6.68;;;;;;;-3.66;100.00;96229.31;5022832;28;20018;-62
2023/12/07 02:35:38;;;;;;;10.52;7.47;;;;;;;-3.66;100.00;96227.59;5027584;28;20022;-61
2023/12/07 02:38:06;;;;;;;12.88;8.13;;;;;;;-3.67;100.00;96240.50;5024178;28;20053;-61
2023/12/07 02:40:31;;;;;;;12.00;9.40;;;;;;;-3.71;100.00;96241.47;5022783;28;20026;-61
2023/12/07 02:42:59;;;;;;;9.70;7.10;;;;;;;-3.79;100.00;96232.25;5023238;28;20040;-61
2023/12/07 02:45:26;;;;;;;10.55;6.57;;;;;;;-3.84;100.00;96234.09;5022784;28;20041;-61
2023/12/07 02:47:51;;;;;;;4.32;3.85;;;;;;;-3.81;100.00;96230.59;5027541;28;20032;-61
2023/12/07 02:50:17;;;;;;;5.50;5.00;;;;;;;-3.88;100.00;96227.31;5029679;28;20025;-61
2023/12/07 02:52:42;;;;;;;5.60;4.97;;;;;;;-3.89;100.00;96223.06;5027483;28;20132;-61
2023/12/07 02:55:09;;;;;;;4.05;3.72;;;;;;;-3.87;100.00;96223.88;5025044;28;20037;-62
2023/12/07 02:57:34;;;;;;;3.72;3.40;;;;;;;-3.87;100.00;96218.72;5023672;28;20025;-61
2023/12/07 03:00:00;;;;;;;3.75;3.42;;;;;;;-3.87;100.00;96223.88;5023739;28;20076;-61
2023/12/07 03:02:26;;;;;;;5.03;4.53;;;;;;;-3.82;100.00;96226.31;5023929;28;20061;-62
2023/12/07 03:04:52;;;;;;;4.38;3.97;;;;;;;-3.83;100.00;96219.50;5029617;28;20033;-61
2023/12/07 03:07:17;;;;;;;5.28;4.80;;;;;;;-3.85;100.00;96222.13;5032574;28;20478;-62
2023/12/07 03:09:43;;;;;;;6.93;5.72;;;;;;;-3.85;100.00;96222.13;5029719;28;20432;-61
2023/12/07 03:12:08;;;;;;;5.32;4.85;;;;;;;-3.83;100.00;96211.78;5032899;28;20091;-61
2023/12/07 03:14:34;;;;;;;6.68;5.10;;;;;;;-3.82;100.00;96196.31;5023454;28;20052;-61
2023/12/07 03:16:59;;;;;;;4.85;4.35;;;;;;;-3.80;100.00;96199.69;5030388;28;20442;-62
2023/12/07 03:19:25;;;;;;;6.53;5.47;;;;;;;-3.81;100.00;96195.41;5030729;28;20039;-62
2023/12/07 03:21:50;;;;;;;6.60;5.25;;;;;;;-3.85;100.00;96191.25;5028213;28;20113;-61
2023/12/07 03:24:16;;;;;;;5.53;5.03;;;;;;;-3.86;100.00;96186.13;5024405;28;20030;-61
2023/12/07 03:26:41;;;;;;;5.07;4.45;;;;;;;-3.86;100.00;96184.41;5021497;28;20030;-61
2023/12/07 03:29:07;;;;;;;8.70;5.85;;;;;;;-3.82;100.00;96183.44;5032278;28;20061;-62
2023/12/07 03:31:32;;;;;;;6.85;5.30;;;;;;;-3.85;100.00;96187.81;5022327;28;20101;-61
2023/12/07 03:33:59;;;;;;;6.15;5.50;;;;;;;-3.92;100.00;96181.97;5022841;28;20042;-61
2023/12/07 03:36:24;;;;;;;5.32;4.68;;;;;;;-3.92;100.00;96181.97;5024487;28;20037;-61
2023/12/07 03:38:50;;;;;;;5.32;4.82;;;;;;;-3.88;100.00;96175.84;5027186;28;20033;-62
2023/12/07 03:41:15;;;;;;;7.18;5.53;;;;;;;-3.89;100.00;96187.03;5027055;28;20454;-61
2023/12/07 03:43:41;;;;;;;8.27;6.43;;;;;;;-3.93;100.00;96173.44;5029662;28;20029;-61
2023/12/07 03:46:07;;;;;;;7.07;4.90;;;;;;;-3.93;100.00;96182.88;5025218;28;20030;-62
2023/12/07 03:48:33;;;;;;;8.85;5.70;;;;;;;-3.93;100.00;96190.59;5027787;28;20407;-61
2023/12/07 03:50:59;;;;;;;7.45;5.72;;;;;;;-3.96;100.00;96195.81;5029450;28;20053;-62
2023/12/07 03:53:25;;;;;;;9.60;6.43;;;;;;;-3.97;100.00;96191.56;5025130;28;20053;-62
2023/12/07 03:55:50;;;;;;;12.70;7.70;;;;;;;-4.01;100.00;96195.09;5024211;28;20084;-62
2023/12/07 03:58:16;;;;;;;8.43;5.97;;;;;;;-4.12;100.00;96198.78;5032618;28;20085;-61
2023/12/07 04:00:42;;;;;;;8.25;7.25;;;;;;;-4.20;100.00;96198.16;5022355;28;20017;-62
2023/12/07 04:03:07;;;;;;;8.45;6.90;;;;;;;-4.18;100.00;96199.81;5027175;28;20025;-61
2023/12/07 04:05:33;;;;;;;8.73;6.30;;;;;;;-4.14;100.00;96190.28;5028816;28;20048;-62
2023/12/07 04:07:59;;;;;;;13.38;8.18;;;;;;;-4.18;100.00;96189.53;5021906;28;20113;-61
2023/12/07 04:10:24;;;;;;;14.73;10.43;;;;;;;-4.20;100.00;96186.16;5023157;28;20108;-61
2023/12/07 04:12:52;;;;;;;9.43;7.30;;;;;;;-4.19;100.00;96186.97;5033473;28;20440;-62
2023/12/07 04:15:18;;;;;;;5.45;4.95;;;;;;;-4.19;100.00;96192.13;5024105;28;20025;-61
2023/12/07 04:17:43;;;;;;;6.05;5.50;;;;;;;-4.11;100.00;96185.03;5021824;28;20106;-62
2023/12/07 04:20:09;;;;;;;5.95;5.30;;;;;;;-4.05;100.00;96177.19;5026436;28;20104;-62
2023/12/07 04:22:35;;;;;;;7.47;5.20;;;;;;;-4.05;100.00;96159.19;5022818;28;20759;-61
2023/12/07 04:25:00;;;;;;;8.38;6.18;;;;;;;-4.04;100.00;96155.72;5021546;28;20141;-62
2023/12/07 04:27:25;;;;;;;6.70;6.00;;;;;;;-4.03;100.00;96164.25;5026775;28;20032;-61
2023/12/07 04:29:51;;;;;;;5.82;5.28;;;;;;;-4.08;100.00;96164.41;5025007;28;20030;-62
2023/12/07 04:32:16;;;;;;;6.55;5.85;;;;;;;-4.12;100.00;96173.06;5030868;28;20029;-61
2023/12/07 04:34:41;;;;;;;10.48;5.47;;;;;;;-3.86;100.00;96173.25;5020999;28;20056;-61
2023/12/07 04:37:07;;;;;;;6.22;5.55;;;;;;;-3.92;100.00;96171.69;5023241;28;20076;-62
2023/12/07 04:39:32;;;;;;;6.97;5.72;;;;;;;-4.03;100.00;96188.28;5027769;28;20051;-62
2023/12/07 04:41:57;;;;;;;6.22;5.43;;;;;;;-4.10;100.00;96189.28;5031381;28;20059;-62
2023/12/07 04:44:25;;;;;;;9.98;6.72;;;;;;;-4.15;100.00;96186.00;5028866;28;20032;-62
2023/12/07 04:46:51;;;;;;;7.90;7.07;;;;;;;-4.14;100.00;96181.72;5020766;28;20052;-61
2023/12/07 04:49:16;;;;;;;9.93;6.93;;;;;;;-4.14;100.00;96177.41;5029358;28;20053;-62
2023/12/07 04:51:46;;;;;;;12.07;7.38;;;;;;;-4.10;100.00;96179.00;5022706;28;20021;-61
2023/12/07 04:54:11;;;;;;;14.82;8.68;;;;;;;-4.10;100.00;96179.00;5016209;28;20036;-62
2023/12/07 04:56:37;;;;;;;9.55;7.47;;;;;;;-4.11;100.00;96174.75;5023465;28;20029;-62
2023/12/07 04:59:02;;;;;;;11.80;7.78;;;;;;;-4.15;100.00;96168.00;5021929;28;20083;-62
2023/12/07 05:01:28;;;;;;;10.65;8.57;;;;;;;-4.19;100.00;96174.13;5032360;28;20036;-62
2023/12/07 05:03:53;;;;;;;11.27;8.82;;;;;;;-4.20;100.00;96181.00;5028352;28;20022;-61
2023/12/07 05:06:18;;;;;;;10.50;9.02;;;;;;;-4.20;100.00;96175.00;5023103;28;20048;-62
2023/12/07 05:08:44;;;;;;;9.10;7.45;;;;;;;-4.22;100.00;96181.91;5024805;28;20029;-62
2023/12/07 05:11:09;;;;;;;10.70;8.13;;;;;;;-4.26;100.00;96188.03;5024069;28;20044;-62
2023/12/07 05:13:35;;;;;;;12.10;8.02;;;;;;;-4.28;100.00;96182.91;5025652;28;20116;-61
2023/12/07 05:16:01;;;;;;;9.98;7.00;;;;;;;-4.29;100.00;96193.25;5030533;28;20045;-61
2023/12/07 05:18:26;;;;;;;7.78;6.97;;;;;;;-4.30;100.00;96194.13;5024938;28;20022;-61
2023/12/07 05:20:51;;;;;;;8.20;7.25;;;;;;;-4.29;100.00;96195.81;5026048;28;20030;-61
2023/12/07 05:23:17;;;;;;;8.68;7.05;;;;;;;-4.26;100.00;96190.59;5027606;28;20108;-61
2023/12/07 05:25:43;;;;;;;8.15;7.00;;;;;;;-4.27;100.00;96199.19;5024393;28;20048;-61
2023/12/07 05:28:08;;;;;;;8.88;7.47;;;;;;;-4.28;100.00;96205.22;5021030;28;20466;-62
2023/12/07 05:30:35;;;;;;;9.52;8.30;;;;;;;-4.29;100.00;96211.25;5027625;28;20029;-61
2023/12/07 05:33:01;;;;;;;8.90;7.55;;;;;;;-4.30;100.00;96212.13;5033897;28;20521;-62
2023/12/07 05:35:26;;;;;;;7.93;7.13;;;;;;;-4.32;100.00;96215.56;5019370;28;20022;-62
2023/12/07 05:37:52;;;;;;;8.95;7.85;;;;;;;-4.34;100.00;96224.22;5025834;28;20027;-61
2023/12/07 05:40:18;;;;;;;8.50;7.40;;;;;;;-4.37;100.00;96219.97;5027625;28;20024;-61
2023/12/07 05:42:44;;;;;;;10.43;7.50;;;;;;;-4.41;100.00;96220.13;5022163;28;20100;-61
2023/12/07 05:45:10;;;;;;;8.00;7.20;;;;;;;-4.45;100.00;96221.91;5023191;28;20139;-61
2023/12/07 05:47:36;;;;;;;8.70;7.55;;;;;;;-4.51;100.00;96204.06;5028297;28;20044;-61
2023/12/07 05:50:03;;;;;;;15.73;11.27;;;;;;;-4.51;100.00;96207.47;5023814;28;20030;-61
2023/12/07 05:52:28;;;;;;;13.00;9.55;;;;;;;-4.48;100.00;96209.13;5029156;28;20391;-62
2023/12/07 05:54:54;;;;;;;9.13;7.80;;;;;;;-4.48;100.00;96214.28;5029723;28;20032;-62
2023/12/07 05:57:19;;;;;;;15.10;13.27;;;;;;;-4.44;100.00;96204.75;5023661;28;20100;-62
2023/12/07 05:59:44;;;;;;;16.88;13.77;;;;;;;-4.44;100.00;96208.16;5026900;28;20025;-62
2023/12/07 06:02:10;;;;;;;16.08;13.95;;;;;;;-4.49;100.00;96215.16;5020912;28;20029;-62
2023/12/07 06:04:35;;;;;;;13.70;11.93;;;;;;;-4.55;100.00;96205.88;5029400;28;20128;-62
2023/12/07 06:07:00;;;;;;;13.30;10.50;;;;;;;-4.56;100.00;96211.03;5029421;28;20021;-62
2023/12/07 06:09:26;;;;;;;11.43;9.38;;;;;;;-4.60;100.00;96208.53;5022718;28;20061;-62
2023/12/07 06:11:51;;;;;;;11.27;10.07;;;;;;;-4.58;100.00;96205.94;5025239;28;20509;-62
2023/12/07 06:14:17;;;;;;;11.57;10.27;;;;;;;-4.54;100.00;96204.97;5025725;28;20031;-61
2023/12/07 06:16:42;;;;;;;13.57;11.52;;;;;;;-4.52;100.00;96204.97;5026494;28;20491;-62
2023/12/07 06:19:07;;;;;;;13.88;11.90;;;;;;;-4.50;100.00;96210.91;5022994;28;20021;-61
2023/12/07 06:21:33;;;;;;;14.05;12.10;;;;;;;-4.49;100.00;96200.56;5028140;28;20025;-61
2023/12/07 06:23:58;;;;;;;12.50;11.30;;;;;;;-4.52;100.00;96208.34;5033790;28;20026;-62
2023/12/07 06:26:24;;;;;;;13.27;10.60;;;;;;;-4.53;100.00;96211.81;5026436;28;20022;-62
2023/12/07 06:28:50;;;;;;;13.80;11.52;;;;;;;-4.58;100.00;96215.34;5025815;28;20033;-62
2023/12/07 06:31:19;;;;;;;12.40;10.93;;;;;;;-4.62;100.00;96207.72;5035006;28;20026;-62
2023/12/07 06:33:45;;;;;;;12.55;9.82;;;;;;;-4.64;100.00;96206.94;5033696;28;20018;-62
2023/12/07 06:36:11;;;;;;;13.70;10.38;;;;;;;-4.65;100.00;96205.22;5021497;28;20112;-62
2023/12/07 06:38:36;;;;;;;15.20;12.88;;;;;;;-4.65;100.00;96205.22;5031468;28;20025;-62
2023/12/07 06:41:01;;;;;;;17.55;13.40;;;;;;;-4.67;100.00;96204.44;5031670;28;20498;-62
2023/12/07 06:43:27;;;;;;;16.25;13.25;;;;;;;-4.67;100.00;96207.00;5025457;28;20032;-61
2023/12/07 06:45:52;;;;;;;17.58;13.48;;;;;;;-4.66;100.00;96212.97;5027282;28;20052;-61
2023/12/07 06:48:18;;;;;;;18.75;13.85;;;;;;;-4.64;100.00;96214.63;5035274;28;20029;-61
2023/12/07 06:50:43;;;;;;;18.85;14.23;;;;;;;-4.55;100.00;96217.84;5027318;28;20022;-61
2023/12/07 06:53:09;;;;;;;22.23;16.10;;;;;;;-4.56;100.00;96222.16;5037438;28;20053;-62
2023/12/07 06:55:34;;;;;;;31.23;19.25;;;;;;;-4.56;100.00;96234.16;5008985;28;20109;-62
2023/12/07 06:58:00;;;;;;;26.50;17.08;;;;;;;-4.58;100.00;96241.06;5026018;28;20035;-62
2023/12/07 07:00:25;;;;;;;29.90;19.17;;;;;;;-4.60;100.00;96243.69;5023846;28;20547;-61
2023/12/07 07:02:50;;;;;;;24.48;17.33;;;;;;;-4.58;100.00;96257.34;5022972;28;20026;-62
2023/12/07 07:05:16;;;;;;;28.63;20.73;;;;;;;-4.53;100.00;96249.50;5027295;28;20053;-62
2023/12/07 07:07:41;;;;;;;24.75;19.52;;;;;;;-4.54;100.00;96237.53;5021462;28;20045;-63
2023/12/07 07:10:09;;;;;;;33.38;23.50;;;;;;;-4.56;100.00;96241.88;5029165;28;20029;-62
2023/12/07 07:12:35;;;;;;;30.92;20.42;;;;;;;-4.61;100.00;96245.41;5027072;28;20026;-63
2023/12/07 07:15:01;;;;;;;25.83;19.73;;;;;;;-4.61;100.00;96242.81;5029607;28;20045;-62
2023/12/07 07:17:26;;;;;;;35.67;21.42;;;;;;;-4.60;100.00;96238.53;5022398;28;20026;-62
2023/12/07 07:19:51;;;;;;;31.10;22.27;;;;;;;-4.54;100.00;96242.66;5023438;28;20029;-61
2023/12/07 07:22:17;;;;;;;29.75;19.85;;;;;;;-4.50;100.00;96246.88;5025692;28;20037;-62
2023/12/07 07:24:42;;;;;;;29.40;19.85;;;;;;;-4.57;100.00;96253.88;5031506;28;20026;-62
2023/12/07 07:27:07;;;;;;;25.48;18.55;;;;;;;-4.61;100.00;96252.28;5025271;28;20024;-61
2023/12/07 07:29:33;;;;;;;23.15;17.15;;;;;;;-4.60;100.00;96249.66;5027047;28;20029;-61
2023/12/07 07:31:58;;;;;;;21.85;15.15;;;;;;;-4.58;100.00;96257.34;5024154;28;20510;-61
2023/12/07 07:34:25;;;;;;;21.52;15.00;;;;;;;-4.52;100.00;96264.06;5034691;28;20501;-61
2023/12/07 07:36:50;;;;;;;19.15;14.18;;;;;;;-4.44;100.00;96280.16;5027392;28;20123;-61
2023/12/07 07:39:15;;;;;;;21.35;15.05;;;;;;;-4.41;100.00;96274.94;5020064;28;20021;-61
2023/12/07 07:41:41;;;;;;;22.40;16.20;;;;;;;-4.38;100.00;96272.28;5031041;28;20079;-61
2023/12/07 07:44:06;;;;;;;23.35;18.25;;;;;;;-4.37;100.00;96266.25;5039502;28;20084;-61
2023/12/07 07:46:32;;;;;;;20.25;15.18;;;;;;;-4.35;100.00;96269.63;5024835;28;20139;-61
2023/12/07 07:48:57;;;;;;;27.25;18.17;;;;;;;-4.45;100.00;96255.31;5028268;28;20074;-61
2023/12/07 07:51:22;;;;;;;49.47;30.73;;;;;;;-4.41;100.00;96245.81;5009561;28;20509;-61
2023/12/07 07:53:48;;;;;;;44.75;30.35;;;;;;;-4.43;100.00;96234.72;5022200;28;20042;-61
2023/12/07 07:56:13;;;;;;;45.08;29.58;;;;;;;-4.43;100.00;96222.72;5023952;28;20559;-61
2023/12/07 07:58:39;;;;;;;37.33;25.20;;;;;;;-4.44;100.00;96208.16;5028544;28;20084;-62
2023/12/07 08:01:04;;;;;;;33.13;23.75;;;;;;;-4.44;100.00;96202.16;5025462;28;20021;-62
2023/12/07 08:03:30;;;;;;;54.47;37.05;;;;;;;-4.41;100.00;96202.94;5013747;28;20039;-60
2023/12/07 08:05:55;;;;;;;58.90;36.72;;;;;;;-4.37;100.00;96196.84;5028834;28;20502;-61
2023/12/07 08:08:20;;;;;;;49.95;29.95;;;;;;;-4.36;100.00;96192.56;5026363;28;20028;-61
2023/12/07 08:10:46;;;;;;;48.72;31.88;;;;;;;-4.37;100.00;96184.00;5026348;28;20033;-62
2023/12/07 08:13:11;;;;;;;49.92;29.48;;;;;;;-4.35;100.00;96171.09;5027205;28;20116;-61
2023/12/07 08:15:37;;;;;;;53.15;31.70;;;;;;;-4.34;100.00;96173.63;5025296;28;20141;-61
2023/12/07 08:18:02;;;;;;;44.78;28.75;;;;;;;-4.38;100.00;96155.75;5022406;28;20715;-61
2023/12/07 08:20:27;;;;;;;54.83;36.05;;;;;;;-4.36;100.00;96154.81;5008034;28;20030;-61
2023/12/07 08:22:53;;;;;;;46.20;32.33;;;;;;;-4.24;100.00;96151.09;5027346;28;20049;-62
2023/12/07 08:25:19;;;;;;;37.67;24.95;;;;;;;-4.15;100.00;96142.28;5028279;28;20625;-61
2023/12/07 08:27:45;;;;;;;41.17;28.27;;;;;;;-4.10;100.00;96131.88;5024703;28;20474;-61
2023/12/07 08:30:11;;;;;;;46.67;31.10;;;;;;;-4.18;100.00;96134.66;5026180;28;20092;-61
2023/12/07 08:32:38;;;;;;;45.25;31.17;;;;;;;-4.18;100.00;96126.94;5045923;28;20032;-61
2023/12/07 08:35:05;;;;;;;42.42;28.10;;;;;;;-4.19;100.00;96135.53;5023048;28;20034;-61
2023/12/07 08:37:31;;;;;;;28.13;21.05;;;;;;;-4.18;100.00;96142.38;5020705;28;20105;-62
2023/12/07 08:39:56;;;;;;;23.30;17.95;;;;;;;-4.10;100.00;96127.56;5027879;28;20093;-61
2023/12/07 08:42:21;;;;;;;23.65;16.52;;;;;;;-3.97;100.00;96129.81;5022545;28;20473;-61
2023/12/07 08:44:47;;;;;;;24.77;18.23;;;;;;;-3.89;100.00;96126.16;5020219;28;20025;-61
2023/12/07 08:47:12;;;;;;;25.73;19.60;;;;;;;-3.80;100.00;96121.63;5027679;28;20032;-61
2023/12/07 08:49:38;;;;;;;31.88;23.38;;;;;;;-3.77;100.00;96116.38;5023798;28;20541;-61
2023/12/07 08:52:03;;;;;;;34.30;25.08;;;;;;;-3.75;100.00;96114.63;5021369;28;20433;-62
2023/12/07 08:54:28;;;;;;;37.08;28.65;;;;;;;-3.77;100.00;96111.22;5025675;28;20022;-61
2023/12/07 08:56:55;;;;;;;39.58;28.45;;;;;;;-3.79;100.00;96110.44;5040805;28;20132;-61
2023/12/07 08:59:20;;;;;;;41.70;29.83;;;;;;;-3.80;100.00;96104.47;5026495;28;20025;-61
2023/12/07 09:01:46;;;;;;;41.80;29.02;;;;;;;-3.80;100.00;96112.19;5024703;28;20056;-62
2023/12/07 09:04:12;;;;;;;40.80;32.33;;;;;;;-3.93;100.00;96114.25;5022157;28;20025;-61
2023/12/07 09:06:37;;;;;;;34.97;27.73;;;;;;;-3.97;100.00;96125.53;5025535;28;20026;-61
2023/12/07 09:09:04;;;;;;;31.48;23.88;;;;;;;-3.90;100.00;96129.63;5025186;28;20611;-61
2023/12/07 09:11:30;;;;;;;34.50;23.65;;;;;;;-3.79;100.00;96138.75;5026256;28;20021;-61
2023/12/07 09:13:55;;;;;;;28.13;22.88;;;;;;;-3.76;100.00;96157.53;5025119;28;20033;-61
2023/12/07 09:16:21;;;;;;;42.10;30.05;;;;;;;-3.73;100.00;96159.19;5024939;28;20033;-61
2023/12/07 09:18:47;;;;;;;38.95;28.65;;;;;;;-3.71;100.00;96159.97;5022055;28;20028;-61
2023/12/07 09:21:12;;;;;;;45.22;31.50;;;;;;;-3.65;100.00;96162.38;5023463;28;20040;-61
2023/12/07 09:23:38;;;;;;;46.25;33.00;;;;;;;-3.41;100.00;96165.13;5024435;28;20032;-61
2023/12/07 09:26:04;;;;;;;43.20;33.22;;;;;;;-2.95;100.00;96168.06;5023275;28;20013;-62
2023/12/07 09:28:29;;;;;;;51.75;35.85;;;;;;;-2.50;100.00;96168.38;5020793;28;20041;-61
2023/12/07 09:30:55;;;;;;;55.67;37.50;;;;;;;-2.13;100.00;96166.28;5022333;28;20411;-61
2023/12/07 09:33:20;;;;;;;50.47;35.92;;;;;;;-1.76;100.00;96171.00;5022406;28;20034;-62
2023/12/07 09:35:45;;;;;;;47.63;33.40;;;;;;;-1.57;100.00;96172.94;5024505;28;20045;-62
2023/12/07 09:38:11;;;;;;;46.20;33.13;;;;;;;-1.30;100.00;96172.81;5026459;28;20033;-62
2023/12/07 09:40:36;;;;;;;46.38;32.05;;;;;;;-1.02;100.00;96179.50;5024460;28;20056;-62
2023/12/07 09:43:02;;;;;;;39.17;23.98;;;;;;;-0.81;100.00;96182.16;5023546;28;20049;-62
2023/12/07 09:45:28;;;;;;;23.85;18.10;;;;;;;-0.84;100.00;96185.72;5027123;28;20025;-62
2023/12/07 09:47:54;;;;;;;25.55;18.67;;;;;;;-0.80;100.00;96189.00;5024944;28;20032;-62
2023/12/07 09:50:21;;;;;;;25.45;19.08;;;;;;;-0.67;100.00;96202.28;5020007;28;20495;-62
2023/12/07 09:52:56;;;;;;;27.10;17.00;;;;;;;-0.45;100.00;96208.31;5021835;28;20045;-62
2023/12/07 09:55:22;;;;;;;32.75;20.33;;;;;;;-0.31;100.00;96219.84;5019933;28;20105;-62
2023/12/07 09:57:48;;;;;;;27.08;19.02;;;;;;;-0.05;100.00;96216.19;5022918;28;20030;-62
2023/12/07 10:00:15;;;;;;;19.77;12.82;;;;;;;0.12;100.00;96219.84;5023705;28;20041;-62
2023/12/07 10:02:42;;;;;;;18.55;14.77;;;;;;;0.23;100.00;96230.56;5023954;28;20018;-62
2023/12/07 10:05:21;;;;;;;17.95;13.45;;;;;;;0.35;100.00;96231.78;5025362;28;20091;-62
2023/12/07 10:07:50;;;;;;;13.25;9.77;;;;;;;0.49;100.00;96238.13;5020515;28;20064;-62
2023/12/07 10:10:17;;;;;;;9.82;8.55;;;;;;;0.66;100.00;96242.56;5021189;28;20080;-62
2023/12/07 10:12:47;;;;;;;6.47;5.50;;;;;;;0.70;100.00;96259.66;5023542;28;20084;-62
2023/12/07 10:15:15;;;;;;;9.02;7.25;;;;;;;0.88;100.00;96249.41;5021347;28;20528;-62
2023/12/07 10:17:47;;;;;;;4.55;4.20;;;;;;;0.99;100.00;96245.41;5022617;28;20109;-62
2023/12/07 10:20:17;;;;;;;4.78;4.35;;;;;;;1.07;100.00;96237.28;5025911;28;20029;-62
2023/12/07 10:22:42;;;;;;;18.55;11.98;;;;;;;1.28;100.00;96237.22;5022049;28;20025;-62
2023/12/07 10:25:10;;;;;;;17.40;11.50;;;;;;;1.42;100.00;96233.97;5021342;28;20033;-62
2023/12/07 10:27:38;;;;;;;12.25;9.43;;;;;;;1.64;100.00;96232.94;5024502;28;20028;-63
2023/12/07 10:30:06;;;;;;;16.25;13.57;;;;;;;1.81;100.00;96232.13;5026312;28;20243;-62
2023/12/07 10:32:35;;;;;;;13.52;8.57;;;;;;;1.71;100.00;96216.16;5020495;28;20036;-62
2023/12/07 10:35:01;;;;;;;14.45;7.30;;;;;;;1.86;100.00;96223.22;5020809;28;20119;-62
2023/12/07 10:37:26;;;;;;;9.82;7.95;;;;;;;1.92;100.00;96211.69;5018793;28;20061;-62
2023/12/07 10:39:52;;;;;;;9.23;8.32;;;;;;;1.85;100.00;96197.31;5019303;28;20025;-62
2023/12/07 10:42:22;;;;;;;6.10;5.60;;;;;;;1.94;100.00;96186.47;5020542;28;20475;-63
2023/12/07 10:44:53;;;;;;;4.30;3.90;;;;;;;2.11;100.00;96174.41;5022869;28;20031;-62
2023/12/07 10:47:22;;;;;;;5.45;4.43;;;;;;;2.17;100.00;96168.88;5025197;28;20049;-62
2023/12/07 10:49:54;;;;;;;4.63;4.20;;;;;;;2.25;100.00;96152.91;5022358;28;20025;-62
2023/12/07 10:52:23;;;;;;;16.42;11.15;;;;;;;2.31;100.00;96156.94;5017722;28;20057;-62
2023/12/07 10:54:58;;;;;;;3.80;3.50;;;;;;;2.30;100.00;96153.50;5019188;28;20029;-63
2023/12/07 10:57:23;;;;;;;2.90;2.60;;;;;;;2.10;100.00;96144.13;5024659;28;20030;-62
2023/12/07 10:59:51;;;;;;;3.78;3.42;;;;;;;2.12;100.00;96147.50;5024989;28;20096;-62
2023/12/07 11:02:19;;;;;;;2.30;2.20;;;;;;;2.22;100.00;96135.72;5023817;28;20226;-63
2023/12/07 11:04:45;;;;;;;3.85;3.47;;;;;;;2.38;100.00;96132.31;5026187;28;20032;-63
2023/12/07 11:07:18;;;;;;;3.17;2.97;;;;;;;2.39;100.00;96124.44;5032141;28;20021;-63
2023/12/07 11:09:51;;;;;;;2.72;2.53;;;;;;;2.25;100.00;96113.94;5029483;28;20056;-63
2023/12/07 11:12:33;;;;;;;3.20;3.00;;;;;;;2.31;100.00;96128.34;5028826;28;20037;-62